sensor_id;sensor_type;location;lat;lon;timestamp;P1;durP1;ratioP1;P2;durP2;ratioP2
7583;SDS011;3833;41.764;26.204;2022-11-20T00:00:15;12.03;;;4.63;;
7583;SDS011;3833;41.764;26.204;2022-11-20T00:02:42;13.03;;;4.93;;
7583;SDS011;3833;41.764;26.204;2022-11-20T00:05:09;18.83;;;5.33;;
7583;SDS011;3833;41.764;26.204;2022-11-20T00:07:35;7.97;;;4.20;;
7583;SDS011;3833;41.764;26.204;2022-11-20T00:10:05;13.43;;;4.83;;
7583;SDS011;3833;41.764;26.204;2022-11-20T00:12:31;9.83;;;4.87;;
7583;SDS011;3833;41.764;26.204;2022-11-20T00:14:58;8.33;;;3.83;;
7583;SDS011;3833;41.764;26.204;2022-11-20T00:17:25;12.27;;;5.17;;
7583;SDS011;3833;41.764;26.204;2022-11-20T00:19:51;15.30;;;4.70;;
7583;SDS011;3833;41.764;26.204;2022-11-20T00:22:18;12.33;;;4.40;;
7583;SDS011;3833;41.764;26.204;2022-11-20T00:24:44;14.93;;;4.70;;
7583;SDS011;3833;41.764;26.204;2022-11-20T00:27:12;20.17;;;5.57;;
7583;SDS011;3833;41.764;26.204;2022-11-20T00:29:38;12.37;;;5.67;;
7583;SDS011;3833;41.764;26.204;2022-11-20T00:32:05;16.03;;;5.37;;
7583;SDS011;3833;41.764;26.204;2022-11-20T00:34:32;15.53;;;4.30;;
7583;SDS011;3833;41.764;26.204;2022-11-20T00:36:58;14.43;;;5.30;;
7583;SDS011;3833;41.764;26.204;2022-11-20T00:39:25;14.40;;;4.67;;
7583;SDS011;3833;41.764;26.204;2022-11-20T00:43:47;9.73;;;4.30;;
7583;SDS011;3833;41.764;26.204;2022-11-20T00:46:14;13.47;;;4.50;;
7583;SDS011;3833;41.764;26.204;2022-11-20T00:48:41;12.87;;;4.83;;
7583;SDS011;3833;41.764;26.204;2022-11-20T00:51:07;13.07;;;5.77;;
7583;SDS011;3833;41.764;26.204;2022-11-20T00:53:34;12.07;;;5.17;;
7583;SDS011;3833;41.764;26.204;2022-11-20T00:56:01;13.13;;;4.97;;
7583;SDS011;3833;41.764;26.204;2022-11-20T00:58:28;18.37;;;5.20;;
7583;SDS011;3833;41.764;26.204;2022-11-20T01:01:00;14.67;;;4.80;;
7583;SDS011;3833;41.764;26.204;2022-11-20T01:03:27;12.53;;;5.07;;
7583;SDS011;3833;41.764;26.204;2022-11-20T01:05:54;15.00;;;5.23;;
7583;SDS011;3833;41.764;26.204;2022-11-20T01:08:25;8.20;;;4.40;;
7583;SDS011;3833;41.764;26.204;2022-11-20T01:10:51;12.43;;;5.03;;
7583;SDS011;3833;41.764;26.204;2022-11-20T01:13:18;10.90;;;3.60;;
7583;SDS011;3833;41.764;26.204;2022-11-20T01:16:04;14.43;;;4.30;;
7583;SDS011;3833;41.764;26.204;2022-11-20T01:18:31;13.70;;;4.97;;
7583;SDS011;3833;41.764;26.204;2022-11-20T01:20:59;13.20;;;4.07;;
7583;SDS011;3833;41.764;26.204;2022-11-20T01:23:30;11.57;;;4.43;;
7583;SDS011;3833;41.764;26.204;2022-11-20T01:25:56;11.73;;;4.33;;
7583;SDS011;3833;41.764;26.204;2022-11-20T01:28:23;14.10;;;4.23;;
7583;SDS011;3833;41.764;26.204;2022-11-20T01:30:50;11.13;;;3.80;;
7583;SDS011;3833;41.764;26.204;2022-11-20T01:33:18;10.33;;;4.33;;
7583;SDS011;3833;41.764;26.204;2022-11-20T01:35:44;9.83;;;4.23;;
7583;SDS011;3833;41.764;26.204;2022-11-20T01:38:11;12.33;;;4.33;;
7583;SDS011;3833;41.764;26.204;2022-11-20T01:40:37;14.10;;;4.37;;
7583;SDS011;3833;41.764;26.204;2022-11-20T01:43:09;11.13;;;3.60;;
7583;SDS011;3833;41.764;26.204;2022-11-20T01:45:51;10.57;;;3.97;;
7583;SDS011;3833;41.764;26.204;2022-11-20T01:48:20;13.57;;;3.60;;
7583;SDS011;3833;41.764;26.204;2022-11-20T01:50:48;14.10;;;4.20;;
7583;SDS011;3833;41.764;26.204;2022-11-20T01:53:15;13.43;;;4.03;;
7583;SDS011;3833;41.764;26.204;2022-11-20T01:55:43;13.60;;;4.90;;
7583;SDS011;3833;41.764;26.204;2022-11-20T01:58:11;14.60;;;4.23;;
7583;SDS011;3833;41.764;26.204;2022-11-20T02:00:38;16.30;;;4.40;;
7583;SDS011;3833;41.764;26.204;2022-11-20T02:03:08;10.97;;;3.67;;
7583;SDS011;3833;41.764;26.204;2022-11-20T02:05:37;10.17;;;4.07;;
7583;SDS011;3833;41.764;26.204;2022-11-20T02:08:05;18.07;;;4.80;;
7583;SDS011;3833;41.764;26.204;2022-11-20T02:10:32;9.93;;;3.83;;
7583;SDS011;3833;41.764;26.204;2022-11-20T02:12:59;10.97;;;4.20;;
7583;SDS011;3833;41.764;26.204;2022-11-20T02:15:44;11.87;;;4.40;;
7583;SDS011;3833;41.764;26.204;2022-11-20T02:18:10;15.63;;;4.37;;
7583;SDS011;3833;41.764;26.204;2022-11-20T02:20:39;19.67;;;4.47;;
7583;SDS011;3833;41.764;26.204;2022-11-20T02:23:08;14.67;;;3.80;;
7583;SDS011;3833;41.764;26.204;2022-11-20T02:25:36;15.33;;;4.60;;
7583;SDS011;3833;41.764;26.204;2022-11-20T02:28:03;15.00;;;4.40;;
7583;SDS011;3833;41.764;26.204;2022-11-20T02:30:29;11.33;;;4.33;;
7583;SDS011;3833;41.764;26.204;2022-11-20T02:32:57;17.13;;;4.20;;
7583;SDS011;3833;41.764;26.204;2022-11-20T02:35:40;12.30;;;4.50;;
7583;SDS011;3833;41.764;26.204;2022-11-20T02:38:07;16.10;;;4.53;;
7583;SDS011;3833;41.764;26.204;2022-11-20T02:40:34;14.70;;;4.13;;
7583;SDS011;3833;41.764;26.204;2022-11-20T02:43:02;10.40;;;3.67;;
7583;SDS011;3833;41.764;26.204;2022-11-20T02:45:28;13.37;;;4.30;;
7583;SDS011;3833;41.764;26.204;2022-11-20T02:47:55;12.67;;;3.83;;
7583;SDS011;3833;41.764;26.204;2022-11-20T02:50:22;11.63;;;4.07;;
7583;SDS011;3833;41.764;26.204;2022-11-20T02:52:48;13.53;;;5.50;;
7583;SDS011;3833;41.764;26.204;2022-11-20T02:55:15;11.90;;;3.80;;
7583;SDS011;3833;41.764;26.204;2022-11-20T02:57:41;13.07;;;4.53;;
7583;SDS011;3833;41.764;26.204;2022-11-20T03:00:10;11.53;;;4.20;;
7583;SDS011;3833;41.764;26.204;2022-11-20T03:02:37;14.10;;;4.50;;
7583;SDS011;3833;41.764;26.204;2022-11-20T03:05:03;9.97;;;3.70;;
7583;SDS011;3833;41.764;26.204;2022-11-20T03:07:30;18.87;;;4.60;;
7583;SDS011;3833;41.764;26.204;2022-11-20T03:09:56;13.70;;;4.20;;
7583;SDS011;3833;41.764;26.204;2022-11-20T03:12:24;15.70;;;4.50;;
7583;SDS011;3833;41.764;26.204;2022-11-20T03:14:51;14.07;;;4.40;;
7583;SDS011;3833;41.764;26.204;2022-11-20T03:17:18;9.90;;;4.90;;
7583;SDS011;3833;41.764;26.204;2022-11-20T03:19:45;14.47;;;3.80;;
7583;SDS011;3833;41.764;26.204;2022-11-20T03:22:11;18.07;;;4.87;;
7583;SDS011;3833;41.764;26.204;2022-11-20T03:24:38;10.50;;;4.30;;
7583;SDS011;3833;41.764;26.204;2022-11-20T03:27:04;12.37;;;4.10;;
7583;SDS011;3833;41.764;26.204;2022-11-20T03:29:31;17.37;;;4.47;;
7583;SDS011;3833;41.764;26.204;2022-11-20T03:31:57;14.17;;;4.70;;
7583;SDS011;3833;41.764;26.204;2022-11-20T03:34:25;14.27;;;4.03;;
7583;SDS011;3833;41.764;26.204;2022-11-20T03:36:52;15.60;;;4.63;;
7583;SDS011;3833;41.764;26.204;2022-11-20T03:39:18;12.90;;;4.40;;
7583;SDS011;3833;41.764;26.204;2022-11-20T03:41:45;13.67;;;4.40;;
7583;SDS011;3833;41.764;26.204;2022-11-20T03:44:11;12.80;;;4.30;;
7583;SDS011;3833;41.764;26.204;2022-11-20T03:46:38;9.20;;;3.60;;
7583;SDS011;3833;41.764;26.204;2022-11-20T03:49:05;11.07;;;4.40;;
7583;SDS011;3833;41.764;26.204;2022-11-20T03:51:33;14.77;;;5.13;;
7583;SDS011;3833;41.764;26.204;2022-11-20T03:54:01;14.40;;;3.80;;
7583;SDS011;3833;41.764;26.204;2022-11-20T03:56:29;11.57;;;4.13;;
7583;SDS011;3833;41.764;26.204;2022-11-20T03:58:56;17.43;;;4.97;;
7583;SDS011;3833;41.764;26.204;2022-11-20T04:01:23;16.10;;;5.03;;
7583;SDS011;3833;41.764;26.204;2022-11-20T04:03:51;12.97;;;3.63;;
7583;SDS011;3833;41.764;26.204;2022-11-20T04:06:19;8.93;;;4.33;;
7583;SDS011;3833;41.764;26.204;2022-11-20T04:08:47;8.47;;;3.70;;
7583;SDS011;3833;41.764;26.204;2022-11-20T04:11:15;9.03;;;3.20;;
7583;SDS011;3833;41.764;26.204;2022-11-20T04:13:42;14.97;;;3.87;;
7583;SDS011;3833;41.764;26.204;2022-11-20T04:16:11;13.33;;;4.60;;
7583;SDS011;3833;41.764;26.204;2022-11-20T04:18:38;16.87;;;4.93;;
7583;SDS011;3833;41.764;26.204;2022-11-20T04:21:05;12.03;;;4.27;;
7583;SDS011;3833;41.764;26.204;2022-11-20T04:23:32;14.23;;;4.43;;
7583;SDS011;3833;41.764;26.204;2022-11-20T04:26:02;14.57;;;4.53;;
7583;SDS011;3833;41.764;26.204;2022-11-20T04:28:32;15.07;;;5.10;;
7583;SDS011;3833;41.764;26.204;2022-11-20T04:31:02;14.33;;;5.53;;
7583;SDS011;3833;41.764;26.204;2022-11-20T04:33:29;16.60;;;4.90;;
7583;SDS011;3833;41.764;26.204;2022-11-20T04:35:59;10.53;;;4.77;;
7583;SDS011;3833;41.764;26.204;2022-11-20T04:38:25;12.33;;;4.90;;
7583;SDS011;3833;41.764;26.204;2022-11-20T04:40:55;9.90;;;4.47;;
7583;SDS011;3833;41.764;26.204;2022-11-20T04:43:23;12.00;;;4.73;;
7583;SDS011;3833;41.764;26.204;2022-11-20T04:45:50;14.33;;;3.93;;
7583;SDS011;3833;41.764;26.204;2022-11-20T04:48:16;14.47;;;3.87;;
7583;SDS011;3833;41.764;26.204;2022-11-20T04:50:43;15.23;;;4.93;;
7583;SDS011;3833;41.764;26.204;2022-11-20T04:53:12;12.30;;;4.17;;
7583;SDS011;3833;41.764;26.204;2022-11-20T04:55:38;11.97;;;5.03;;
7583;SDS011;3833;41.764;26.204;2022-11-20T04:58:05;14.40;;;4.07;;
7583;SDS011;3833;41.764;26.204;2022-11-20T05:00:33;15.87;;;5.50;;
7583;SDS011;3833;41.764;26.204;2022-11-20T05:03:00;15.50;;;5.20;;
7583;SDS011;3833;41.764;26.204;2022-11-20T05:05:26;20.50;;;4.53;;
7583;SDS011;3833;41.764;26.204;2022-11-20T05:07:53;13.13;;;4.10;;
7583;SDS011;3833;41.764;26.204;2022-11-20T05:10:19;10.23;;;3.83;;
7583;SDS011;3833;41.764;26.204;2022-11-20T05:12:45;15.17;;;4.03;;
7583;SDS011;3833;41.764;26.204;2022-11-20T05:15:12;10.27;;;3.93;;
7583;SDS011;3833;41.764;26.204;2022-11-20T05:17:40;11.70;;;3.97;;
7583;SDS011;3833;41.764;26.204;2022-11-20T05:20:07;9.93;;;4.03;;
7583;SDS011;3833;41.764;26.204;2022-11-20T05:22:34;7.60;;;3.47;;
7583;SDS011;3833;41.764;26.204;2022-11-20T05:25:03;13.20;;;4.23;;
7583;SDS011;3833;41.764;26.204;2022-11-20T05:27:29;11.70;;;4.27;;
7583;SDS011;3833;41.764;26.204;2022-11-20T05:29:56;20.10;;;9.00;;
7583;SDS011;3833;41.764;26.204;2022-11-20T05:32:22;18.10;;;8.53;;
7583;SDS011;3833;41.764;26.204;2022-11-20T05:34:51;14.33;;;5.53;;
7583;SDS011;3833;41.764;26.204;2022-11-20T05:37:18;16.27;;;5.73;;
7583;SDS011;3833;41.764;26.204;2022-11-20T05:39:44;17.73;;;5.67;;
7583;SDS011;3833;41.764;26.204;2022-11-20T05:42:11;15.90;;;6.23;;
7583;SDS011;3833;41.764;26.204;2022-11-20T05:44:55;12.97;;;4.57;;
7583;SDS011;3833;41.764;26.204;2022-11-20T05:47:22;10.90;;;4.07;;
7583;SDS011;3833;41.764;26.204;2022-11-20T05:49:48;15.07;;;5.03;;
7583;SDS011;3833;41.764;26.204;2022-11-20T05:52:16;9.53;;;3.63;;
7583;SDS011;3833;41.764;26.204;2022-11-20T05:54:42;16.23;;;4.77;;
7583;SDS011;3833;41.764;26.204;2022-11-20T05:57:09;16.77;;;4.20;;
7583;SDS011;3833;41.764;26.204;2022-11-20T05:59:35;8.53;;;4.30;;
7583;SDS011;3833;41.764;26.204;2022-11-20T06:02:02;22.57;;;5.60;;
7583;SDS011;3833;41.764;26.204;2022-11-20T06:04:30;11.23;;;4.50;;
7583;SDS011;3833;41.764;26.204;2022-11-20T06:06:56;10.80;;;4.30;;
7583;SDS011;3833;41.764;26.204;2022-11-20T06:09:24;17.87;;;4.43;;
7583;SDS011;3833;41.764;26.204;2022-11-20T06:11:51;21.10;;;4.13;;
7583;SDS011;3833;41.764;26.204;2022-11-20T06:14:17;18.43;;;5.20;;
7583;SDS011;3833;41.764;26.204;2022-11-20T06:16:44;18.47;;;4.30;;
7583;SDS011;3833;41.764;26.204;2022-11-20T06:19:10;15.07;;;4.47;;
7583;SDS011;3833;41.764;26.204;2022-11-20T06:21:36;16.73;;;5.13;;
7583;SDS011;3833;41.764;26.204;2022-11-20T06:24:03;12.13;;;5.27;;
7583;SDS011;3833;41.764;26.204;2022-11-20T06:26:31;13.80;;;4.70;;
7583;SDS011;3833;41.764;26.204;2022-11-20T06:28:58;11.20;;;4.40;;
7583;SDS011;3833;41.764;26.204;2022-11-20T06:31:24;17.27;;;4.93;;
7583;SDS011;3833;41.764;26.204;2022-11-20T06:33:51;12.73;;;4.37;;
7583;SDS011;3833;41.764;26.204;2022-11-20T06:36:19;13.10;;;4.37;;
7583;SDS011;3833;41.764;26.204;2022-11-20T06:38:47;14.73;;;5.17;;
7583;SDS011;3833;41.764;26.204;2022-11-20T06:41:14;8.67;;;4.03;;
7583;SDS011;3833;41.764;26.204;2022-11-20T06:43:42;13.93;;;3.90;;
7583;SDS011;3833;41.764;26.204;2022-11-20T06:46:09;16.07;;;4.43;;
7583;SDS011;3833;41.764;26.204;2022-11-20T06:48:36;17.57;;;4.90;;
7583;SDS011;3833;41.764;26.204;2022-11-20T06:51:03;22.20;;;5.53;;
7583;SDS011;3833;41.764;26.204;2022-11-20T06:53:29;15.97;;;5.10;;
7583;SDS011;3833;41.764;26.204;2022-11-20T06:55:56;21.80;;;5.47;;
7583;SDS011;3833;41.764;26.204;2022-11-20T06:58:23;12.70;;;5.33;;
7583;SDS011;3833;41.764;26.204;2022-11-20T07:00:51;16.40;;;5.43;;
7583;SDS011;3833;41.764;26.204;2022-11-20T07:03:17;16.40;;;4.97;;
7583;SDS011;3833;41.764;26.204;2022-11-20T07:05:44;12.83;;;4.53;;
7583;SDS011;3833;41.764;26.204;2022-11-20T07:08:11;14.03;;;5.60;;
7583;SDS011;3833;41.764;26.204;2022-11-20T07:10:37;15.70;;;6.60;;
7583;SDS011;3833;41.764;26.204;2022-11-20T07:13:04;12.20;;;4.87;;
7583;SDS011;3833;41.764;26.204;2022-11-20T07:15:32;21.00;;;5.63;;
7583;SDS011;3833;41.764;26.204;2022-11-20T07:18:00;17.83;;;6.40;;
7583;SDS011;3833;41.764;26.204;2022-11-20T07:20:26;16.23;;;5.53;;
7583;SDS011;3833;41.764;26.204;2022-11-20T07:22:53;10.03;;;4.33;;
7583;SDS011;3833;41.764;26.204;2022-11-20T07:25:20;13.80;;;5.07;;
7583;SDS011;3833;41.764;26.204;2022-11-20T07:27:47;20.53;;;5.33;;
7583;SDS011;3833;41.764;26.204;2022-11-20T07:30:14;16.70;;;5.37;;
7583;SDS011;3833;41.764;26.204;2022-11-20T07:32:40;15.67;;;6.03;;
7583;SDS011;3833;41.764;26.204;2022-11-20T07:35:08;18.27;;;5.50;;
7583;SDS011;3833;41.764;26.204;2022-11-20T07:37:35;13.40;;;5.87;;
7583;SDS011;3833;41.764;26.204;2022-11-20T07:40:03;15.50;;;5.30;;
7583;SDS011;3833;41.764;26.204;2022-11-20T07:42:30;14.30;;;5.37;;
7583;SDS011;3833;41.764;26.204;2022-11-20T07:44:56;14.17;;;5.80;;
7583;SDS011;3833;41.764;26.204;2022-11-20T07:47:23;16.30;;;6.77;;
7583;SDS011;3833;41.764;26.204;2022-11-20T07:49:50;19.67;;;6.70;;
7583;SDS011;3833;41.764;26.204;2022-11-20T07:52:17;15.37;;;5.97;;
7583;SDS011;3833;41.764;26.204;2022-11-20T07:54:44;13.87;;;5.30;;
7583;SDS011;3833;41.764;26.204;2022-11-20T07:57:10;12.77;;;4.60;;
7583;SDS011;3833;41.764;26.204;2022-11-20T07:59:37;16.70;;;5.77;;
7583;SDS011;3833;41.764;26.204;2022-11-20T08:02:04;18.57;;;5.67;;
7583;SDS011;3833;41.764;26.204;2022-11-20T08:04:30;17.77;;;6.23;;
7583;SDS011;3833;41.764;26.204;2022-11-20T08:06:58;22.70;;;6.73;;
7583;SDS011;3833;41.764;26.204;2022-11-20T08:09:26;16.60;;;6.40;;
7583;SDS011;3833;41.764;26.204;2022-11-20T08:11:53;15.03;;;5.93;;
7583;SDS011;3833;41.764;26.204;2022-11-20T08:14:37;20.90;;;6.30;;
7583;SDS011;3833;41.764;26.204;2022-11-20T08:17:03;21.20;;;5.57;;
7583;SDS011;3833;41.764;26.204;2022-11-20T08:19:30;21.23;;;6.53;;
7583;SDS011;3833;41.764;26.204;2022-11-20T08:21:56;20.20;;;6.60;;
7583;SDS011;3833;41.764;26.204;2022-11-20T08:24:23;23.13;;;6.07;;
7583;SDS011;3833;41.764;26.204;2022-11-20T08:26:51;20.37;;;6.13;;
7583;SDS011;3833;41.764;26.204;2022-11-20T08:29:17;21.87;;;6.03;;
7583;SDS011;3833;41.764;26.204;2022-11-20T08:31:44;17.43;;;6.53;;
7583;SDS011;3833;41.764;26.204;2022-11-20T08:34:10;26.70;;;6.57;;
7583;SDS011;3833;41.764;26.204;2022-11-20T08:36:37;22.47;;;6.90;;
7583;SDS011;3833;41.764;26.204;2022-11-20T08:39:04;21.50;;;6.17;;
7583;SDS011;3833;41.764;26.204;2022-11-20T08:41:30;21.20;;;5.90;;
7583;SDS011;3833;41.764;26.204;2022-11-20T08:44:00;18.40;;;5.70;;
7583;SDS011;3833;41.764;26.204;2022-11-20T08:46:27;22.07;;;5.20;;
7583;SDS011;3833;41.764;26.204;2022-11-20T08:48:54;22.73;;;7.03;;
7583;SDS011;3833;41.764;26.204;2022-11-20T08:51:21;21.63;;;6.23;;
7583;SDS011;3833;41.764;26.204;2022-11-20T08:53:47;21.03;;;5.83;;
7583;SDS011;3833;41.764;26.204;2022-11-20T08:56:14;19.97;;;7.37;;
7583;SDS011;3833;41.764;26.204;2022-11-20T08:58:41;16.37;;;5.60;;
7583;SDS011;3833;41.764;26.204;2022-11-20T09:01:09;24.90;;;7.40;;
7583;SDS011;3833;41.764;26.204;2022-11-20T09:03:35;26.57;;;8.03;;
7583;SDS011;3833;41.764;26.204;2022-11-20T09:06:05;16.17;;;7.83;;
7583;SDS011;3833;41.764;26.204;2022-11-20T09:08:32;21.33;;;6.70;;
7583;SDS011;3833;41.764;26.204;2022-11-20T09:11:00;21.63;;;8.13;;
7583;SDS011;3833;41.764;26.204;2022-11-20T09:13:27;23.57;;;8.90;;
7583;SDS011;3833;41.764;26.204;2022-11-20T09:15:54;23.70;;;7.47;;
7583;SDS011;3833;41.764;26.204;2022-11-20T09:18:22;19.33;;;6.93;;
7583;SDS011;3833;41.764;26.204;2022-11-20T09:20:49;35.47;;;9.23;;
7583;SDS011;3833;41.764;26.204;2022-11-20T09:23:16;21.77;;;6.70;;
7583;SDS011;3833;41.764;26.204;2022-11-20T09:25:43;25.57;;;8.43;;
7583;SDS011;3833;41.764;26.204;2022-11-20T09:28:09;23.40;;;9.03;;
7583;SDS011;3833;41.764;26.204;2022-11-20T09:30:36;26.60;;;8.20;;
7583;SDS011;3833;41.764;26.204;2022-11-20T09:33:03;22.30;;;8.67;;
7583;SDS011;3833;41.764;26.204;2022-11-20T09:35:31;31.20;;;7.83;;
7583;SDS011;3833;41.764;26.204;2022-11-20T09:37:58;23.90;;;8.10;;
7583;SDS011;3833;41.764;26.204;2022-11-20T09:40:25;32.10;;;9.53;;
7583;SDS011;3833;41.764;26.204;2022-11-20T09:42:54;33.80;;;8.13;;
7583;SDS011;3833;41.764;26.204;2022-11-20T09:45:23;25.77;;;6.90;;
7583;SDS011;3833;41.764;26.204;2022-11-20T09:47:53;30.33;;;8.27;;
7583;SDS011;3833;41.764;26.204;2022-11-20T09:50:25;28.23;;;9.07;;
7583;SDS011;3833;41.764;26.204;2022-11-20T09:53:01;26.17;;;9.03;;
7583;SDS011;3833;41.764;26.204;2022-11-20T09:55:31;27.70;;;7.17;;
7583;SDS011;3833;41.764;26.204;2022-11-20T09:57:57;22.33;;;7.17;;
7583;SDS011;3833;41.764;26.204;2022-11-20T10:00:25;25.03;;;6.63;;
7583;SDS011;3833;41.764;26.204;2022-11-20T10:02:55;18.27;;;5.53;;
7583;SDS011;3833;41.764;26.204;2022-11-20T10:05:25;19.53;;;5.87;;
7583;SDS011;3833;41.764;26.204;2022-11-20T10:07:52;23.37;;;6.07;;
7583;SDS011;3833;41.764;26.204;2022-11-20T10:10:25;20.57;;;5.77;;
7583;SDS011;3833;41.764;26.204;2022-11-20T10:12:58;17.53;;;4.93;;
7583;SDS011;3833;41.764;26.204;2022-11-20T10:15:29;14.00;;;5.40;;
7583;SDS011;3833;41.764;26.204;2022-11-20T10:18:07;19.40;;;5.63;;
7583;SDS011;3833;41.764;26.204;2022-11-20T10:20:38;18.27;;;5.27;;
7583;SDS011;3833;41.764;26.204;2022-11-20T10:23:12;30.97;;;6.37;;
7583;SDS011;3833;41.764;26.204;2022-11-20T10:25:43;22.83;;;7.00;;
7583;SDS011;3833;41.764;26.204;2022-11-20T10:28:18;25.10;;;5.67;;
7583;SDS011;3833;41.764;26.204;2022-11-20T10:30:55;26.73;;;6.63;;
7583;SDS011;3833;41.764;26.204;2022-11-20T10:33:23;23.47;;;6.13;;
7583;SDS011;3833;41.764;26.204;2022-11-20T10:35:50;31.63;;;6.93;;
7583;SDS011;3833;41.764;26.204;2022-11-20T10:38:19;15.37;;;5.90;;
7583;SDS011;3833;41.764;26.204;2022-11-20T10:40:51;19.07;;;5.47;;
7583;SDS011;3833;41.764;26.204;2022-11-20T10:43:19;14.10;;;5.67;;
7583;SDS011;3833;41.764;26.204;2022-11-20T10:45:48;16.10;;;5.27;;
7583;SDS011;3833;41.764;26.204;2022-11-20T10:48:16;16.70;;;4.93;;
7583;SDS011;3833;41.764;26.204;2022-11-20T10:50:55;22.57;;;5.93;;
7583;SDS011;3833;41.764;26.204;2022-11-20T10:53:27;18.03;;;5.63;;
7583;SDS011;3833;41.764;26.204;2022-11-20T10:56:00;19.60;;;5.10;;
7583;SDS011;3833;41.764;26.204;2022-11-20T10:58:30;16.43;;;5.50;;
7583;SDS011;3833;41.764;26.204;2022-11-20T11:01:04;18.57;;;6.20;;
7583;SDS011;3833;41.764;26.204;2022-11-20T11:03:31;20.20;;;4.97;;
7583;SDS011;3833;41.764;26.204;2022-11-20T11:06:00;26.10;;;6.53;;
7583;SDS011;3833;41.764;26.204;2022-11-20T11:08:29;17.73;;;5.93;;
7583;SDS011;3833;41.764;26.204;2022-11-20T11:11:01;20.37;;;6.30;;
7583;SDS011;3833;41.764;26.204;2022-11-20T11:13:30;23.17;;;9.77;;
7583;SDS011;3833;41.764;26.204;2022-11-20T11:15:57;25.03;;;7.50;;
7583;SDS011;3833;41.764;26.204;2022-11-20T11:18:24;18.57;;;6.23;;
7583;SDS011;3833;41.764;26.204;2022-11-20T11:20:52;16.80;;;4.50;;
7583;SDS011;3833;41.764;26.204;2022-11-20T11:23:25;26.77;;;5.73;;
7583;SDS011;3833;41.764;26.204;2022-11-20T11:25:56;20.27;;;6.73;;
7583;SDS011;3833;41.764;26.204;2022-11-20T11:28:25;23.50;;;5.80;;
7583;SDS011;3833;41.764;26.204;2022-11-20T11:30:53;25.60;;;7.03;;
7583;SDS011;3833;41.764;26.204;2022-11-20T11:33:20;34.50;;;12.23;;
7583;SDS011;3833;41.764;26.204;2022-11-20T11:35:48;25.33;;;8.10;;
7583;SDS011;3833;41.764;26.204;2022-11-20T11:38:15;26.67;;;6.80;;
7583;SDS011;3833;41.764;26.204;2022-11-20T11:40:43;29.87;;;10.43;;
7583;SDS011;3833;41.764;26.204;2022-11-20T11:43:19;26.20;;;7.67;;
7583;SDS011;3833;41.764;26.204;2022-11-20T11:46:06;24.97;;;8.77;;
7583;SDS011;3833;41.764;26.204;2022-11-20T11:48:36;18.47;;;8.07;;
7583;SDS011;3833;41.764;26.204;2022-11-20T11:51:03;20.83;;;7.03;;
7583;SDS011;3833;41.764;26.204;2022-11-20T11:53:34;31.77;;;9.70;;
7583;SDS011;3833;41.764;26.204;2022-11-20T11:56:02;32.63;;;10.20;;
7583;SDS011;3833;41.764;26.204;2022-11-20T11:58:34;28.60;;;11.00;;
7583;SDS011;3833;41.764;26.204;2022-11-20T12:01:20;28.20;;;8.87;;
7583;SDS011;3833;41.764;26.204;2022-11-20T12:03:52;30.80;;;7.50;;
7583;SDS011;3833;41.764;26.204;2022-11-20T12:06:21;41.73;;;18.83;;
7583;SDS011;3833;41.764;26.204;2022-11-20T12:08:50;25.40;;;8.97;;
7583;SDS011;3833;41.764;26.204;2022-11-20T12:11:20;23.23;;;8.43;;
7583;SDS011;3833;41.764;26.204;2022-11-20T12:13:50;31.30;;;8.40;;
7583;SDS011;3833;41.764;26.204;2022-11-20T12:16:19;28.37;;;10.70;;
7583;SDS011;3833;41.764;26.204;2022-11-20T12:18:46;27.87;;;7.57;;
7583;SDS011;3833;41.764;26.204;2022-11-20T12:21:20;21.30;;;7.90;;
7583;SDS011;3833;41.764;26.204;2022-11-20T12:23:54;22.83;;;7.37;;
7583;SDS011;3833;41.764;26.204;2022-11-20T12:26:26;34.20;;;10.23;;
7583;SDS011;3833;41.764;26.204;2022-11-20T12:28:58;29.37;;;7.70;;
7583;SDS011;3833;41.764;26.204;2022-11-20T12:34:16;35.53;;;11.00;;
7583;SDS011;3833;41.764;26.204;2022-11-20T12:36:49;29.07;;;8.17;;
7583;SDS011;3833;41.764;26.204;2022-11-20T12:39:25;29.83;;;10.70;;
7583;SDS011;3833;41.764;26.204;2022-11-20T12:42:09;25.60;;;7.00;;
7583;SDS011;3833;41.764;26.204;2022-11-20T12:45:01;25.33;;;6.23;;
7583;SDS011;3833;41.764;26.204;2022-11-20T12:47:48;27.13;;;6.10;;
7583;SDS011;3833;41.764;26.204;2022-11-20T12:50:18;18.20;;;7.17;;
7583;SDS011;3833;41.764;26.204;2022-11-20T12:52:51;25.63;;;6.40;;
7583;SDS011;3833;41.764;26.204;2022-11-20T12:55:23;21.00;;;6.07;;
7583;SDS011;3833;41.764;26.204;2022-11-20T12:57:53;34.50;;;8.03;;
7583;SDS011;3833;41.764;26.204;2022-11-20T13:00:21;32.87;;;7.00;;
7583;SDS011;3833;41.764;26.204;2022-11-20T13:02:56;27.47;;;7.47;;
7583;SDS011;3833;41.764;26.204;2022-11-20T13:05:27;21.80;;;6.10;;
7583;SDS011;3833;41.764;26.204;2022-11-20T13:07:59;29.57;;;8.47;;
7583;SDS011;3833;41.764;26.204;2022-11-20T13:10:29;27.53;;;6.90;;
7583;SDS011;3833;41.764;26.204;2022-11-20T13:12:58;27.47;;;7.97;;
7583;SDS011;3833;41.764;26.204;2022-11-20T13:18:13;25.13;;;7.20;;
7583;SDS011;3833;41.764;26.204;2022-11-20T13:20:43;21.53;;;6.30;;
7583;SDS011;3833;41.764;26.204;2022-11-20T13:23:22;22.03;;;7.77;;
7583;SDS011;3833;41.764;26.204;2022-11-20T13:25:48;31.83;;;8.70;;
7583;SDS011;3833;41.764;26.204;2022-11-20T13:28:26;30.17;;;7.83;;
7583;SDS011;3833;41.764;26.204;2022-11-20T13:30:54;20.13;;;6.60;;
7583;SDS011;3833;41.764;26.204;2022-11-20T13:33:22;32.03;;;8.37;;
7583;SDS011;3833;41.764;26.204;2022-11-20T13:35:54;26.20;;;8.63;;
7583;SDS011;3833;41.764;26.204;2022-11-20T13:38:24;22.77;;;6.77;;
7583;SDS011;3833;41.764;26.204;2022-11-20T13:40:51;33.83;;;10.27;;
7583;SDS011;3833;41.764;26.204;2022-11-20T13:43:20;31.13;;;9.73;;
7583;SDS011;3833;41.764;26.204;2022-11-20T13:45:54;33.60;;;10.07;;
7583;SDS011;3833;41.764;26.204;2022-11-20T13:48:21;29.73;;;8.27;;
7583;SDS011;3833;41.764;26.204;2022-11-20T13:50:54;24.03;;;7.27;;
7583;SDS011;3833;41.764;26.204;2022-11-20T13:53:33;28.30;;;7.93;;
7583;SDS011;3833;41.764;26.204;2022-11-20T13:56:04;35.23;;;7.93;;
7583;SDS011;3833;41.764;26.204;2022-11-20T13:58:36;31.03;;;9.20;;
7583;SDS011;3833;41.764;26.204;2022-11-20T14:01:08;26.50;;;7.70;;
7583;SDS011;3833;41.764;26.204;2022-11-20T14:03:35;32.87;;;8.53;;
7583;SDS011;3833;41.764;26.204;2022-11-20T14:06:03;42.73;;;10.47;;
7583;SDS011;3833;41.764;26.204;2022-11-20T14:08:35;34.97;;;10.60;;
7583;SDS011;3833;41.764;26.204;2022-11-20T14:11:03;22.20;;;7.73;;
7583;SDS011;3833;41.764;26.204;2022-11-20T14:13:30;37.77;;;10.57;;
7583;SDS011;3833;41.764;26.204;2022-11-20T14:15:56;34.53;;;9.00;;
7583;SDS011;3833;41.764;26.204;2022-11-20T14:18:25;24.37;;;8.23;;
7583;SDS011;3833;41.764;26.204;2022-11-20T14:20:51;31.17;;;8.47;;
7583;SDS011;3833;41.764;26.204;2022-11-20T14:23:23;28.47;;;8.03;;
7583;SDS011;3833;41.764;26.204;2022-11-20T14:25:51;32.53;;;8.43;;
7583;SDS011;3833;41.764;26.204;2022-11-20T14:28:20;27.73;;;8.43;;
7583;SDS011;3833;41.764;26.204;2022-11-20T14:30:48;28.70;;;7.77;;
7583;SDS011;3833;41.764;26.204;2022-11-20T14:33:15;24.90;;;7.83;;
7583;SDS011;3833;41.764;26.204;2022-11-20T14:35:44;27.30;;;6.90;;
7583;SDS011;3833;41.764;26.204;2022-11-20T14:38:11;23.13;;;9.20;;
7583;SDS011;3833;41.764;26.204;2022-11-20T14:40:39;38.17;;;9.90;;
7583;SDS011;3833;41.764;26.204;2022-11-20T14:43:17;35.30;;;9.83;;
7583;SDS011;3833;41.764;26.204;2022-11-20T14:45:44;26.10;;;11.03;;
7583;SDS011;3833;41.764;26.204;2022-11-20T14:48:12;30.90;;;10.70;;
7583;SDS011;3833;41.764;26.204;2022-11-20T14:50:39;38.83;;;8.90;;
7583;SDS011;3833;41.764;26.204;2022-11-20T14:53:06;25.17;;;7.20;;
7583;SDS011;3833;41.764;26.204;2022-11-20T14:55:33;33.97;;;7.27;;
7583;SDS011;3833;41.764;26.204;2022-11-20T14:58:00;29.17;;;8.77;;
7583;SDS011;3833;41.764;26.204;2022-11-20T15:00:29;27.73;;;8.20;;
7583;SDS011;3833;41.764;26.204;2022-11-20T15:02:56;22.77;;;7.63;;